<?xml version="1.0" encoding="UTF-8" standalone="no" ?>
<gpx xmlns="http://www.topografix.com/GPX/1/1" xmlns:xsi="http://www.w3.org/2001/XMLSchema-instance" xsi:schemaLocation="http://www.topografix.com/GPX/1/1 http://www.topografix.com/GPX/1/1/gpx.xsd" version="1.1" creator="VisuGPX - https://www.visugpx.com">
  <metadata>
    <name>Déconfinement.</name>
    <desc><![CDATA[Reprise progressive de l'activité physique après confinement. Parcours au bord de l'Adour.

]]></desc>
  </metadata>
  <trk>
    <name><![CDATA[7 mai 2020 à 13:35:40]]></name>
    <cmt><![CDATA[7 mai 2020 à 13:35:40]]></cmt>
    <trkseg>
      <trkpt lat="43.234" lon="0.08168">
        <ele>304</ele>
        <time>2020-05-07T11:35:40Z</time>
      </trkpt>
      <trkpt lat="43.234" lon="0.08168">
        <ele>304</ele>
        <time>2020-05-07T11:35:41Z</time>
      </trkpt>
      <trkpt lat="43.23395" lon="0.08184">
        <ele>304</ele>
        <time>2020-05-07T11:36:05Z</time>
      </trkpt>
      <trkpt lat="43.23388" lon="0.08191">
        <ele>304</ele>
        <time>2020-05-07T11:36:11Z</time>
      </trkpt>
      <trkpt lat="43.23385" lon="0.08201">
        <ele>304</ele>
        <time>2020-05-07T11:36:28Z</time>
      </trkpt>
      <trkpt lat="43.23391" lon="0.08232">
        <ele>304</ele>
        <time>2020-05-07T11:36:47Z</time>
      </trkpt>
      <trkpt lat="43.23396" lon="0.08238">
        <ele>304</ele>
        <time>2020-05-07T11:36:51Z</time>
      </trkpt>
      <trkpt lat="43.23399" lon="0.08246">
        <ele>303</ele>
        <time>2020-05-07T11:37:00Z</time>
      </trkpt>
      <trkpt lat="43.23403" lon="0.08256">
        <ele>304</ele>
        <time>2020-05-07T11:37:07Z</time>
      </trkpt>
      <trkpt lat="43.23418" lon="0.08288">
        <ele>305</ele>
        <time>2020-05-07T11:37:36Z</time>
      </trkpt>
      <trkpt lat="43.23426" lon="0.08363">
        <ele>305</ele>
        <time>2020-05-07T11:38:07Z</time>
      </trkpt>
      <trkpt lat="43.23427" lon="0.08369">
        <ele>305</ele>
        <time>2020-05-07T11:38:13Z</time>
      </trkpt>
      <trkpt lat="43.2343" lon="0.08373">
        <ele>305</ele>
        <time>2020-05-07T11:38:32Z</time>
      </trkpt>
      <trkpt lat="43.23433" lon="0.08387">
        <ele>305</ele>
        <time>2020-05-07T11:38:43Z</time>
      </trkpt>
      <trkpt lat="43.23438" lon="0.08397">
        <ele>305</ele>
        <time>2020-05-07T11:38:49Z</time>
      </trkpt>
      <trkpt lat="43.23439" lon="0.08403">
        <ele>305</ele>
        <time>2020-05-07T11:38:52Z</time>
      </trkpt>
      <trkpt lat="43.23445" lon="0.08426">
        <ele>305</ele>
        <time>2020-05-07T11:39:08Z</time>
      </trkpt>
      <trkpt lat="43.23447" lon="0.0843">
        <ele>306</ele>
        <time>2020-05-07T11:39:11Z</time>
      </trkpt>
      <trkpt lat="43.23454" lon="0.08437">
        <ele>306</ele>
        <time>2020-05-07T11:39:18Z</time>
      </trkpt>
      <trkpt lat="43.23464" lon="0.08443">
        <ele>305</ele>
        <time>2020-05-07T11:39:27Z</time>
      </trkpt>
      <trkpt lat="43.23486" lon="0.08478">
        <ele>305</ele>
        <time>2020-05-07T11:39:56Z</time>
      </trkpt>
      <trkpt lat="43.23504" lon="0.08509">
        <ele>305</ele>
        <time>2020-05-07T11:40:16Z</time>
      </trkpt>
      <trkpt lat="43.23505" lon="0.08514">
        <ele>305</ele>
        <time>2020-05-07T11:40:20Z</time>
      </trkpt>
      <trkpt lat="43.23509" lon="0.08523">
        <ele>305</ele>
        <time>2020-05-07T11:40:27Z</time>
      </trkpt>
      <trkpt lat="43.23526" lon="0.08538">
        <ele>305</ele>
        <time>2020-05-07T11:40:45Z</time>
      </trkpt>
      <trkpt lat="43.23533" lon="0.08552">
        <ele>305</ele>
        <time>2020-05-07T11:40:54Z</time>
      </trkpt>
      <trkpt lat="43.23539" lon="0.08569">
        <ele>305</ele>
        <time>2020-05-07T11:41:02Z</time>
      </trkpt>
      <trkpt lat="43.23543" lon="0.08574">
        <ele>305</ele>
        <time>2020-05-07T11:41:07Z</time>
      </trkpt>
      <trkpt lat="43.23547" lon="0.08577">
        <ele>305</ele>
        <time>2020-05-07T11:41:11Z</time>
      </trkpt>
      <trkpt lat="43.23552" lon="0.08577">
        <ele>305</ele>
        <time>2020-05-07T11:41:14Z</time>
      </trkpt>
      <trkpt lat="43.23556" lon="0.08574">
        <ele>305</ele>
        <time>2020-05-07T11:41:17Z</time>
      </trkpt>
      <trkpt lat="43.23564" lon="0.08571">
        <ele>305</ele>
        <time>2020-05-07T11:41:23Z</time>
      </trkpt>
      <trkpt lat="43.23568" lon="0.08572">
        <ele>305</ele>
        <time>2020-05-07T11:41:26Z</time>
      </trkpt>
      <trkpt lat="43.23578" lon="0.08569">
        <ele>305</ele>
        <time>2020-05-07T11:41:35Z</time>
      </trkpt>
      <trkpt lat="43.23585" lon="0.08557">
        <ele>306</ele>
        <time>2020-05-07T11:41:43Z</time>
      </trkpt>
      <trkpt lat="43.2359" lon="0.08552">
        <ele>306</ele>
        <time>2020-05-07T11:41:47Z</time>
      </trkpt>
      <trkpt lat="43.23603" lon="0.08528">
        <ele>306</ele>
        <time>2020-05-07T11:42:07Z</time>
      </trkpt>
      <trkpt lat="43.23608" lon="0.08519">
        <ele>306</ele>
        <time>2020-05-07T11:42:16Z</time>
      </trkpt>
      <trkpt lat="43.23617" lon="0.08511">
        <ele>306</ele>
        <time>2020-05-07T11:42:36Z</time>
      </trkpt>
      <trkpt lat="43.23628" lon="0.08494">
        <ele>306</ele>
        <time>2020-05-07T11:42:52Z</time>
      </trkpt>
      <trkpt lat="43.23628" lon="0.08484">
        <ele>306</ele>
        <time>2020-05-07T11:43:00Z</time>
      </trkpt>
      <trkpt lat="43.23637" lon="0.08471">
        <ele>306</ele>
        <time>2020-05-07T11:43:15Z</time>
      </trkpt>
      <trkpt lat="43.23708" lon="0.08426">
        <ele>306</ele>
        <time>2020-05-07T11:43:52Z</time>
      </trkpt>
      <trkpt lat="43.23719" lon="0.08423">
        <ele>306</ele>
        <time>2020-05-07T11:44:09Z</time>
      </trkpt>
      <trkpt lat="43.23724" lon="0.0842">
        <ele>306</ele>
        <time>2020-05-07T11:44:13Z</time>
      </trkpt>
      <trkpt lat="43.23727" lon="0.08414">
        <ele>307</ele>
        <time>2020-05-07T11:44:17Z</time>
      </trkpt>
      <trkpt lat="43.23731" lon="0.08408">
        <ele>306</ele>
        <time>2020-05-07T11:44:23Z</time>
      </trkpt>
      <trkpt lat="43.23748" lon="0.08399">
        <ele>306</ele>
        <time>2020-05-07T11:44:38Z</time>
      </trkpt>
      <trkpt lat="43.23774" lon="0.08372">
        <ele>306</ele>
        <time>2020-05-07T11:45:01Z</time>
      </trkpt>
      <trkpt lat="43.23785" lon="0.08364">
        <ele>306</ele>
        <time>2020-05-07T11:45:09Z</time>
      </trkpt>
      <trkpt lat="43.23793" lon="0.08354">
        <ele>306</ele>
        <time>2020-05-07T11:45:16Z</time>
      </trkpt>
      <trkpt lat="43.23804" lon="0.08346">
        <ele>306</ele>
        <time>2020-05-07T11:45:25Z</time>
      </trkpt>
      <trkpt lat="43.23818" lon="0.08344">
        <ele>306</ele>
        <time>2020-05-07T11:45:32Z</time>
      </trkpt>
      <trkpt lat="43.23824" lon="0.08339">
        <ele>306</ele>
        <time>2020-05-07T11:45:36Z</time>
      </trkpt>
      <trkpt lat="43.23828" lon="0.08338">
        <ele>306</ele>
        <time>2020-05-07T11:45:39Z</time>
      </trkpt>
      <trkpt lat="43.23837" lon="0.08337">
        <ele>307</ele>
        <time>2020-05-07T11:45:46Z</time>
      </trkpt>
      <trkpt lat="43.23843" lon="0.08334">
        <ele>307</ele>
        <time>2020-05-07T11:45:51Z</time>
      </trkpt>
      <trkpt lat="43.23886" lon="0.0832">
        <ele>306</ele>
        <time>2020-05-07T11:46:26Z</time>
      </trkpt>
      <trkpt lat="43.239" lon="0.08315">
        <ele>306</ele>
        <time>2020-05-07T11:46:35Z</time>
      </trkpt>
      <trkpt lat="43.23903" lon="0.08312">
        <ele>306</ele>
        <time>2020-05-07T11:46:38Z</time>
      </trkpt>
      <trkpt lat="43.23932" lon="0.08296">
        <ele>306</ele>
        <time>2020-05-07T11:47:05Z</time>
      </trkpt>
      <trkpt lat="43.23942" lon="0.08284">
        <ele>305</ele>
        <time>2020-05-07T11:47:18Z</time>
      </trkpt>
      <trkpt lat="43.23951" lon="0.08286">
        <ele>304</ele>
        <time>2020-05-07T11:47:48Z</time>
      </trkpt>
      <trkpt lat="43.23957" lon="0.08285">
        <ele>304</ele>
        <time>2020-05-07T11:47:53Z</time>
      </trkpt>
      <trkpt lat="43.23964" lon="0.08273">
        <ele>307</ele>
        <time>2020-05-07T11:48:06Z</time>
      </trkpt>
      <trkpt lat="43.23967" lon="0.08271">
        <ele>307</ele>
        <time>2020-05-07T11:48:10Z</time>
      </trkpt>
      <trkpt lat="43.23969" lon="0.08279">
        <ele>308</ele>
        <time>2020-05-07T11:48:18Z</time>
      </trkpt>
      <trkpt lat="43.23968" lon="0.08285">
        <ele>308</ele>
        <time>2020-05-07T11:48:22Z</time>
      </trkpt>
      <trkpt lat="43.23966" lon="0.0829">
        <ele>308</ele>
        <time>2020-05-07T11:48:25Z</time>
      </trkpt>
      <trkpt lat="43.23963" lon="0.08301">
        <ele>308</ele>
        <time>2020-05-07T11:48:32Z</time>
      </trkpt>
      <trkpt lat="43.23962" lon="0.08308">
        <ele>308</ele>
        <time>2020-05-07T11:48:35Z</time>
      </trkpt>
      <trkpt lat="43.2396" lon="0.08312">
        <ele>308</ele>
        <time>2020-05-07T11:48:38Z</time>
      </trkpt>
      <trkpt lat="43.23959" lon="0.08323">
        <ele>308</ele>
        <time>2020-05-07T11:48:45Z</time>
      </trkpt>
      <trkpt lat="43.23958" lon="0.08329">
        <ele>308</ele>
        <time>2020-05-07T11:48:49Z</time>
      </trkpt>
      <trkpt lat="43.23956" lon="0.08334">
        <ele>308</ele>
        <time>2020-05-07T11:48:53Z</time>
      </trkpt>
      <trkpt lat="43.23954" lon="0.08351">
        <ele>307</ele>
        <time>2020-05-07T11:49:06Z</time>
      </trkpt>
      <trkpt lat="43.23951" lon="0.08342">
        <ele>305</ele>
        <time>2020-05-07T11:49:48Z</time>
      </trkpt>
      <trkpt lat="43.23925" lon="0.08355">
        <ele>306</ele>
        <time>2020-05-07T11:50:17Z</time>
      </trkpt>
      <trkpt lat="43.2392" lon="0.08361">
        <ele>307</ele>
        <time>2020-05-07T11:50:22Z</time>
      </trkpt>
      <trkpt lat="43.23899" lon="0.08371">
        <ele>306</ele>
        <time>2020-05-07T11:50:39Z</time>
      </trkpt>
      <trkpt lat="43.23894" lon="0.08375">
        <ele>306</ele>
        <time>2020-05-07T11:50:44Z</time>
      </trkpt>
      <trkpt lat="43.23883" lon="0.08376">
        <ele>306</ele>
        <time>2020-05-07T11:50:52Z</time>
      </trkpt>
      <trkpt lat="43.23873" lon="0.0838">
        <ele>306</ele>
        <time>2020-05-07T11:51:00Z</time>
      </trkpt>
      <trkpt lat="43.23863" lon="0.0838">
        <ele>306</ele>
        <time>2020-05-07T11:51:10Z</time>
      </trkpt>
      <trkpt lat="43.23857" lon="0.08383">
        <ele>306</ele>
        <time>2020-05-07T11:51:17Z</time>
      </trkpt>
      <trkpt lat="43.23852" lon="0.08388">
        <ele>306</ele>
        <time>2020-05-07T11:51:22Z</time>
      </trkpt>
      <trkpt lat="43.23824" lon="0.08402">
        <ele>306</ele>
        <time>2020-05-07T11:51:50Z</time>
      </trkpt>
      <trkpt lat="43.23821" lon="0.08406">
        <ele>306</ele>
        <time>2020-05-07T11:51:54Z</time>
      </trkpt>
      <trkpt lat="43.23807" lon="0.08414">
        <ele>306</ele>
        <time>2020-05-07T11:52:05Z</time>
      </trkpt>
      <trkpt lat="43.23804" lon="0.08417">
        <ele>306</ele>
        <time>2020-05-07T11:52:09Z</time>
      </trkpt>
      <trkpt lat="43.23792" lon="0.08424">
        <ele>306</ele>
        <time>2020-05-07T11:52:18Z</time>
      </trkpt>
      <trkpt lat="43.23789" lon="0.08427">
        <ele>306</ele>
        <time>2020-05-07T11:52:21Z</time>
      </trkpt>
      <trkpt lat="43.23783" lon="0.0843">
        <ele>306</ele>
        <time>2020-05-07T11:52:27Z</time>
      </trkpt>
      <trkpt lat="43.23776" lon="0.08431">
        <ele>306</ele>
        <time>2020-05-07T11:52:32Z</time>
      </trkpt>
      <trkpt lat="43.23767" lon="0.08439">
        <ele>306</ele>
        <time>2020-05-07T11:52:41Z</time>
      </trkpt>
      <trkpt lat="43.23746" lon="0.08447">
        <ele>307</ele>
        <time>2020-05-07T11:52:57Z</time>
      </trkpt>
      <trkpt lat="43.23722" lon="0.08467">
        <ele>307</ele>
        <time>2020-05-07T11:53:23Z</time>
      </trkpt>
      <trkpt lat="43.23717" lon="0.0847">
        <ele>307</ele>
        <time>2020-05-07T11:53:28Z</time>
      </trkpt>
      <trkpt lat="43.23712" lon="0.08475">
        <ele>307</ele>
        <time>2020-05-07T11:53:33Z</time>
      </trkpt>
      <trkpt lat="43.23695" lon="0.08483">
        <ele>307</ele>
        <time>2020-05-07T11:53:46Z</time>
      </trkpt>
      <trkpt lat="43.23691" lon="0.08488">
        <ele>307</ele>
        <time>2020-05-07T11:53:51Z</time>
      </trkpt>
      <trkpt lat="43.23687" lon="0.08495">
        <ele>308</ele>
        <time>2020-05-07T11:53:55Z</time>
      </trkpt>
      <trkpt lat="43.2368" lon="0.08506">
        <ele>307</ele>
        <time>2020-05-07T11:54:04Z</time>
      </trkpt>
      <trkpt lat="43.23677" lon="0.08513">
        <ele>308</ele>
        <time>2020-05-07T11:54:08Z</time>
      </trkpt>
      <trkpt lat="43.23668" lon="0.08519">
        <ele>307</ele>
        <time>2020-05-07T11:54:16Z</time>
      </trkpt>
      <trkpt lat="43.23657" lon="0.08529">
        <ele>308</ele>
        <time>2020-05-07T11:54:27Z</time>
      </trkpt>
      <trkpt lat="43.23632" lon="0.08563">
        <ele>308</ele>
        <time>2020-05-07T11:54:55Z</time>
      </trkpt>
      <trkpt lat="43.2362" lon="0.08575">
        <ele>308</ele>
        <time>2020-05-07T11:55:07Z</time>
      </trkpt>
      <trkpt lat="43.23617" lon="0.08579">
        <ele>308</ele>
        <time>2020-05-07T11:55:10Z</time>
      </trkpt>
      <trkpt lat="43.23614" lon="0.08582">
        <ele>309</ele>
        <time>2020-05-07T11:55:13Z</time>
      </trkpt>
      <trkpt lat="43.23611" lon="0.08588">
        <ele>308</ele>
        <time>2020-05-07T11:55:16Z</time>
      </trkpt>
      <trkpt lat="43.23591" lon="0.08614">
        <ele>309</ele>
        <time>2020-05-07T11:55:39Z</time>
      </trkpt>
      <trkpt lat="43.23588" lon="0.08616">
        <ele>309</ele>
        <time>2020-05-07T11:55:43Z</time>
      </trkpt>
      <trkpt lat="43.23583" lon="0.08622">
        <ele>309</ele>
        <time>2020-05-07T11:55:49Z</time>
      </trkpt>
      <trkpt lat="43.23581" lon="0.08626">
        <ele>309</ele>
        <time>2020-05-07T11:55:52Z</time>
      </trkpt>
      <trkpt lat="43.23579" lon="0.0863">
        <ele>309</ele>
        <time>2020-05-07T11:55:55Z</time>
      </trkpt>
      <trkpt lat="43.23569" lon="0.08642">
        <ele>309</ele>
        <time>2020-05-07T11:56:05Z</time>
      </trkpt>
      <trkpt lat="43.23565" lon="0.08644">
        <ele>309</ele>
        <time>2020-05-07T11:56:08Z</time>
      </trkpt>
      <trkpt lat="43.23544" lon="0.08671">
        <ele>310</ele>
        <time>2020-05-07T11:56:32Z</time>
      </trkpt>
      <trkpt lat="43.2354" lon="0.08674">
        <ele>310</ele>
        <time>2020-05-07T11:56:35Z</time>
      </trkpt>
      <trkpt lat="43.23511" lon="0.08705">
        <ele>310</ele>
        <time>2020-05-07T11:57:07Z</time>
      </trkpt>
      <trkpt lat="43.23491" lon="0.08729">
        <ele>310</ele>
        <time>2020-05-07T11:57:30Z</time>
      </trkpt>
      <trkpt lat="43.23476" lon="0.08742">
        <ele>310</ele>
        <time>2020-05-07T11:57:44Z</time>
      </trkpt>
      <trkpt lat="43.23466" lon="0.08755">
        <ele>310</ele>
        <time>2020-05-07T11:57:54Z</time>
      </trkpt>
      <trkpt lat="43.23462" lon="0.08758">
        <ele>311</ele>
        <time>2020-05-07T11:57:58Z</time>
      </trkpt>
      <trkpt lat="43.23458" lon="0.08762">
        <ele>311</ele>
        <time>2020-05-07T11:58:02Z</time>
      </trkpt>
      <trkpt lat="43.23421" lon="0.0879">
        <ele>311</ele>
        <time>2020-05-07T11:58:38Z</time>
      </trkpt>
      <trkpt lat="43.23387" lon="0.08813">
        <ele>312</ele>
        <time>2020-05-07T11:59:11Z</time>
      </trkpt>
      <trkpt lat="43.23375" lon="0.08816">
        <ele>312</ele>
        <time>2020-05-07T11:59:21Z</time>
      </trkpt>
      <trkpt lat="43.2337" lon="0.08822">
        <ele>312</ele>
        <time>2020-05-07T11:59:26Z</time>
      </trkpt>
      <trkpt lat="43.2334" lon="0.08835">
        <ele>312</ele>
        <time>2020-05-07T11:59:48Z</time>
      </trkpt>
      <trkpt lat="43.23332" lon="0.08835">
        <ele>312</ele>
        <time>2020-05-07T11:59:54Z</time>
      </trkpt>
      <trkpt lat="43.23327" lon="0.08837">
        <ele>312</ele>
        <time>2020-05-07T11:59:58Z</time>
      </trkpt>
      <trkpt lat="43.23324" lon="0.08842">
        <ele>312</ele>
        <time>2020-05-07T12:00:01Z</time>
      </trkpt>
      <trkpt lat="43.23318" lon="0.08842">
        <ele>312</ele>
        <time>2020-05-07T12:00:04Z</time>
      </trkpt>
      <trkpt lat="43.23283" lon="0.08859">
        <ele>312</ele>
        <time>2020-05-07T12:00:36Z</time>
      </trkpt>
      <trkpt lat="43.23272" lon="0.08865">
        <ele>313</ele>
        <time>2020-05-07T12:00:48Z</time>
      </trkpt>
      <trkpt lat="43.23266" lon="0.08866">
        <ele>313</ele>
        <time>2020-05-07T12:00:53Z</time>
      </trkpt>
      <trkpt lat="43.23258" lon="0.08873">
        <ele>313</ele>
        <time>2020-05-07T12:01:04Z</time>
      </trkpt>
      <trkpt lat="43.23248" lon="0.0888">
        <ele>313</ele>
        <time>2020-05-07T12:01:10Z</time>
      </trkpt>
      <trkpt lat="43.2323" lon="0.08883">
        <ele>313</ele>
        <time>2020-05-07T12:01:26Z</time>
      </trkpt>
      <trkpt lat="43.23224" lon="0.08881">
        <ele>313</ele>
        <time>2020-05-07T12:01:31Z</time>
      </trkpt>
      <trkpt lat="43.23211" lon="0.08883">
        <ele>314</ele>
        <time>2020-05-07T12:01:44Z</time>
      </trkpt>
      <trkpt lat="43.23205" lon="0.08881">
        <ele>314</ele>
        <time>2020-05-07T12:01:47Z</time>
      </trkpt>
      <trkpt lat="43.23187" lon="0.08887">
        <ele>314</ele>
        <time>2020-05-07T12:02:01Z</time>
      </trkpt>
      <trkpt lat="43.23181" lon="0.08891">
        <ele>314</ele>
        <time>2020-05-07T12:02:06Z</time>
      </trkpt>
      <trkpt lat="43.23177" lon="0.08895">
        <ele>314</ele>
        <time>2020-05-07T12:02:12Z</time>
      </trkpt>
      <trkpt lat="43.23142" lon="0.08904">
        <ele>314</ele>
        <time>2020-05-07T12:02:44Z</time>
      </trkpt>
      <trkpt lat="43.23125" lon="0.08911">
        <ele>314</ele>
        <time>2020-05-07T12:03:00Z</time>
      </trkpt>
      <trkpt lat="43.23105" lon="0.08912">
        <ele>314</ele>
        <time>2020-05-07T12:03:17Z</time>
      </trkpt>
      <trkpt lat="43.23083" lon="0.0892">
        <ele>314</ele>
        <time>2020-05-07T12:03:36Z</time>
      </trkpt>
      <trkpt lat="43.23077" lon="0.08918">
        <ele>314</ele>
        <time>2020-05-07T12:03:41Z</time>
      </trkpt>
      <trkpt lat="43.23065" lon="0.08922">
        <ele>314</ele>
        <time>2020-05-07T12:03:49Z</time>
      </trkpt>
      <trkpt lat="43.23059" lon="0.08922">
        <ele>314</ele>
        <time>2020-05-07T12:03:54Z</time>
      </trkpt>
      <trkpt lat="43.23019" lon="0.08947">
        <ele>314</ele>
        <time>2020-05-07T12:04:24Z</time>
      </trkpt>
      <trkpt lat="43.22987" lon="0.08971">
        <ele>314</ele>
        <time>2020-05-07T12:04:53Z</time>
      </trkpt>
      <trkpt lat="43.22953" lon="0.09007">
        <ele>314</ele>
        <time>2020-05-07T12:05:28Z</time>
      </trkpt>
      <trkpt lat="43.22945" lon="0.09018">
        <ele>315</ele>
        <time>2020-05-07T12:05:38Z</time>
      </trkpt>
      <trkpt lat="43.22933" lon="0.09023">
        <ele>314</ele>
        <time>2020-05-07T12:05:48Z</time>
      </trkpt>
      <trkpt lat="43.22925" lon="0.09025">
        <ele>315</ele>
        <time>2020-05-07T12:05:56Z</time>
      </trkpt>
      <trkpt lat="43.22915" lon="0.09034">
        <ele>315</ele>
        <time>2020-05-07T12:06:05Z</time>
      </trkpt>
      <trkpt lat="43.22909" lon="0.09037">
        <ele>315</ele>
        <time>2020-05-07T12:06:11Z</time>
      </trkpt>
      <trkpt lat="43.22899" lon="0.0904">
        <ele>315</ele>
        <time>2020-05-07T12:06:25Z</time>
      </trkpt>
      <trkpt lat="43.22884" lon="0.09042">
        <ele>316</ele>
        <time>2020-05-07T12:06:38Z</time>
      </trkpt>
      <trkpt lat="43.22879" lon="0.09045">
        <ele>316</ele>
        <time>2020-05-07T12:06:42Z</time>
      </trkpt>
      <trkpt lat="43.22867" lon="0.09047">
        <ele>316</ele>
        <time>2020-05-07T12:06:52Z</time>
      </trkpt>
      <trkpt lat="43.22847" lon="0.09054">
        <ele>316</ele>
        <time>2020-05-07T12:07:08Z</time>
      </trkpt>
      <trkpt lat="43.22842" lon="0.09058">
        <ele>316</ele>
        <time>2020-05-07T12:07:12Z</time>
      </trkpt>
      <trkpt lat="43.22822" lon="0.09065">
        <ele>316</ele>
        <time>2020-05-07T12:07:21Z</time>
      </trkpt>
      <trkpt lat="43.22818" lon="0.09068">
        <ele>316</ele>
        <time>2020-05-07T12:07:25Z</time>
      </trkpt>
      <trkpt lat="43.22807" lon="0.09073">
        <ele>316</ele>
        <time>2020-05-07T12:07:33Z</time>
      </trkpt>
      <trkpt lat="43.22801" lon="0.09072">
        <ele>316</ele>
        <time>2020-05-07T12:07:37Z</time>
      </trkpt>
      <trkpt lat="43.22794" lon="0.09073">
        <ele>316</ele>
        <time>2020-05-07T12:07:42Z</time>
      </trkpt>
      <trkpt lat="43.22788" lon="0.09076">
        <ele>316</ele>
        <time>2020-05-07T12:07:48Z</time>
      </trkpt>
      <trkpt lat="43.22776" lon="0.0908">
        <ele>317</ele>
        <time>2020-05-07T12:07:57Z</time>
      </trkpt>
      <trkpt lat="43.22769" lon="0.09079">
        <ele>317</ele>
        <time>2020-05-07T12:08:03Z</time>
      </trkpt>
      <trkpt lat="43.22758" lon="0.09082">
        <ele>317</ele>
        <time>2020-05-07T12:08:11Z</time>
      </trkpt>
      <trkpt lat="43.22751" lon="0.09088">
        <ele>317</ele>
        <time>2020-05-07T12:08:18Z</time>
      </trkpt>
      <trkpt lat="43.22748" lon="0.09091">
        <ele>317</ele>
        <time>2020-05-07T12:08:21Z</time>
      </trkpt>
      <trkpt lat="43.22746" lon="0.09095">
        <ele>317</ele>
        <time>2020-05-07T12:08:25Z</time>
      </trkpt>
      <trkpt lat="43.22744" lon="0.09101">
        <ele>317</ele>
        <time>2020-05-07T12:08:29Z</time>
      </trkpt>
      <trkpt lat="43.22716" lon="0.09111">
        <ele>317</ele>
        <time>2020-05-07T12:08:55Z</time>
      </trkpt>
      <trkpt lat="43.22713" lon="0.09115">
        <ele>317</ele>
        <time>2020-05-07T12:08:59Z</time>
      </trkpt>
      <trkpt lat="43.22707" lon="0.09117">
        <ele>317</ele>
        <time>2020-05-07T12:09:04Z</time>
      </trkpt>
      <trkpt lat="43.22684" lon="0.09127">
        <ele>317</ele>
        <time>2020-05-07T12:09:22Z</time>
      </trkpt>
      <trkpt lat="43.22678" lon="0.09128">
        <ele>317</ele>
        <time>2020-05-07T12:09:27Z</time>
      </trkpt>
      <trkpt lat="43.22674" lon="0.09131">
        <ele>317</ele>
        <time>2020-05-07T12:09:31Z</time>
      </trkpt>
      <trkpt lat="43.22666" lon="0.09135">
        <ele>318</ele>
        <time>2020-05-07T12:09:38Z</time>
      </trkpt>
      <trkpt lat="43.22659" lon="0.09138">
        <ele>317</ele>
        <time>2020-05-07T12:09:43Z</time>
      </trkpt>
      <trkpt lat="43.22655" lon="0.09142">
        <ele>317</ele>
        <time>2020-05-07T12:09:49Z</time>
      </trkpt>
      <trkpt lat="43.22643" lon="0.09148">
        <ele>317</ele>
        <time>2020-05-07T12:09:59Z</time>
      </trkpt>
      <trkpt lat="43.22639" lon="0.09149">
        <ele>317</ele>
        <time>2020-05-07T12:10:02Z</time>
      </trkpt>
      <trkpt lat="43.22627" lon="0.09158">
        <ele>317</ele>
        <time>2020-05-07T12:10:12Z</time>
      </trkpt>
      <trkpt lat="43.22612" lon="0.09161">
        <ele>317</ele>
        <time>2020-05-07T12:10:26Z</time>
      </trkpt>
      <trkpt lat="43.22604" lon="0.09166">
        <ele>318</ele>
        <time>2020-05-07T12:10:33Z</time>
      </trkpt>
      <trkpt lat="43.22599" lon="0.09168">
        <ele>318</ele>
        <time>2020-05-07T12:10:37Z</time>
      </trkpt>
      <trkpt lat="43.2259" lon="0.09176">
        <ele>318</ele>
        <time>2020-05-07T12:10:44Z</time>
      </trkpt>
      <trkpt lat="43.22582" lon="0.09189">
        <ele>318</ele>
        <time>2020-05-07T12:10:54Z</time>
      </trkpt>
      <trkpt lat="43.22581" lon="0.09194">
        <ele>318</ele>
        <time>2020-05-07T12:10:57Z</time>
      </trkpt>
      <trkpt lat="43.22579" lon="0.09203">
        <ele>318</ele>
        <time>2020-05-07T12:11:02Z</time>
      </trkpt>
      <trkpt lat="43.22574" lon="0.09214">
        <ele>318</ele>
        <time>2020-05-07T12:11:10Z</time>
      </trkpt>
      <trkpt lat="43.22567" lon="0.09221">
        <ele>318</ele>
        <time>2020-05-07T12:11:17Z</time>
      </trkpt>
      <trkpt lat="43.22559" lon="0.09226">
        <ele>318</ele>
        <time>2020-05-07T12:11:24Z</time>
      </trkpt>
      <trkpt lat="43.22556" lon="0.09227">
        <ele>318</ele>
        <time>2020-05-07T12:11:28Z</time>
      </trkpt>
      <trkpt lat="43.22551" lon="0.09231">
        <ele>318</ele>
        <time>2020-05-07T12:11:34Z</time>
      </trkpt>
      <trkpt lat="43.22546" lon="0.09235">
        <ele>318</ele>
        <time>2020-05-07T12:11:39Z</time>
      </trkpt>
      <trkpt lat="43.22543" lon="0.09239">
        <ele>318</ele>
        <time>2020-05-07T12:11:42Z</time>
      </trkpt>
      <trkpt lat="43.22517" lon="0.09259">
        <ele>318</ele>
        <time>2020-05-07T12:12:04Z</time>
      </trkpt>
      <trkpt lat="43.225" lon="0.09268">
        <ele>318</ele>
        <time>2020-05-07T12:12:17Z</time>
      </trkpt>
      <trkpt lat="43.22496" lon="0.09272">
        <ele>319</ele>
        <time>2020-05-07T12:12:21Z</time>
      </trkpt>
      <trkpt lat="43.22484" lon="0.09279">
        <ele>319</ele>
        <time>2020-05-07T12:12:31Z</time>
      </trkpt>
      <trkpt lat="43.2248" lon="0.09282">
        <ele>319</ele>
        <time>2020-05-07T12:12:34Z</time>
      </trkpt>
      <trkpt lat="43.22478" lon="0.09286">
        <ele>319</ele>
        <time>2020-05-07T12:12:38Z</time>
      </trkpt>
      <trkpt lat="43.22474" lon="0.0929">
        <ele>319</ele>
        <time>2020-05-07T12:12:43Z</time>
      </trkpt>
      <trkpt lat="43.2247" lon="0.09293">
        <ele>319</ele>
        <time>2020-05-07T12:12:46Z</time>
      </trkpt>
      <trkpt lat="43.22464" lon="0.09294">
        <ele>320</ele>
        <time>2020-05-07T12:12:51Z</time>
      </trkpt>
      <trkpt lat="43.22459" lon="0.09295">
        <ele>320</ele>
        <time>2020-05-07T12:13:11Z</time>
      </trkpt>
      <trkpt lat="43.22453" lon="0.09302">
        <ele>320</ele>
        <time>2020-05-07T12:13:48Z</time>
      </trkpt>
      <trkpt lat="43.22419" lon="0.09327">
        <ele>320</ele>
        <time>2020-05-07T12:14:19Z</time>
      </trkpt>
      <trkpt lat="43.22397" lon="0.09343">
        <ele>321</ele>
        <time>2020-05-07T12:14:40Z</time>
      </trkpt>
      <trkpt lat="43.22391" lon="0.09346">
        <ele>321</ele>
        <time>2020-05-07T12:14:45Z</time>
      </trkpt>
      <trkpt lat="43.22386" lon="0.09344">
        <ele>322</ele>
        <time>2020-05-07T12:14:50Z</time>
      </trkpt>
      <trkpt lat="43.22382" lon="0.0934">
        <ele>322</ele>
        <time>2020-05-07T12:14:55Z</time>
      </trkpt>
      <trkpt lat="43.22377" lon="0.09334">
        <ele>322</ele>
        <time>2020-05-07T12:15:00Z</time>
      </trkpt>
      <trkpt lat="43.22373" lon="0.09319">
        <ele>322</ele>
        <time>2020-05-07T12:15:09Z</time>
      </trkpt>
      <trkpt lat="43.22359" lon="0.0929">
        <ele>321</ele>
        <time>2020-05-07T12:15:28Z</time>
      </trkpt>
      <trkpt lat="43.22355" lon="0.09278">
        <ele>321</ele>
        <time>2020-05-07T12:15:36Z</time>
      </trkpt>
      <trkpt lat="43.22352" lon="0.09268">
        <ele>321</ele>
        <time>2020-05-07T12:16:12Z</time>
      </trkpt>
      <trkpt lat="43.22348" lon="0.09255">
        <ele>321</ele>
        <time>2020-05-07T12:16:23Z</time>
      </trkpt>
      <trkpt lat="43.22341" lon="0.09242">
        <ele>321</ele>
        <time>2020-05-07T12:16:32Z</time>
      </trkpt>
      <trkpt lat="43.22339" lon="0.09234">
        <ele>321</ele>
        <time>2020-05-07T12:16:36Z</time>
      </trkpt>
      <trkpt lat="43.22335" lon="0.09218">
        <ele>321</ele>
        <time>2020-05-07T12:16:44Z</time>
      </trkpt>
      <trkpt lat="43.22326" lon="0.09203">
        <ele>320</ele>
        <time>2020-05-07T12:16:56Z</time>
      </trkpt>
      <trkpt lat="43.22322" lon="0.09191">
        <ele>320</ele>
        <time>2020-05-07T12:17:04Z</time>
      </trkpt>
      <trkpt lat="43.22328" lon="0.09187">
        <ele>320</ele>
        <time>2020-05-07T12:17:14Z</time>
      </trkpt>
      <trkpt lat="43.2234" lon="0.0919">
        <ele>319</ele>
        <time>2020-05-07T12:17:23Z</time>
      </trkpt>
      <trkpt lat="43.22353" lon="0.09178">
        <ele>318</ele>
        <time>2020-05-07T12:17:40Z</time>
      </trkpt>
      <trkpt lat="43.22365" lon="0.09165">
        <ele>319</ele>
        <time>2020-05-07T12:17:51Z</time>
      </trkpt>
      <trkpt lat="43.22383" lon="0.09165">
        <ele>319</ele>
        <time>2020-05-07T12:18:05Z</time>
      </trkpt>
      <trkpt lat="43.22395" lon="0.09159">
        <ele>319</ele>
        <time>2020-05-07T12:18:16Z</time>
      </trkpt>
      <trkpt lat="43.22401" lon="0.09159">
        <ele>319</ele>
        <time>2020-05-07T12:18:22Z</time>
      </trkpt>
      <trkpt lat="43.2241" lon="0.09154">
        <ele>319</ele>
        <time>2020-05-07T12:19:12Z</time>
      </trkpt>
      <trkpt lat="43.22418" lon="0.09154">
        <ele>318</ele>
        <time>2020-05-07T12:19:27Z</time>
      </trkpt>
      <trkpt lat="43.22439" lon="0.09142">
        <ele>318</ele>
        <time>2020-05-07T12:19:59Z</time>
      </trkpt>
      <trkpt lat="43.22446" lon="0.09139">
        <ele>318</ele>
        <time>2020-05-07T12:20:05Z</time>
      </trkpt>
      <trkpt lat="43.22471" lon="0.09124">
        <ele>318</ele>
        <time>2020-05-07T12:20:25Z</time>
      </trkpt>
      <trkpt lat="43.22478" lon="0.09123">
        <ele>318</ele>
        <time>2020-05-07T12:20:31Z</time>
      </trkpt>
      <trkpt lat="43.22484" lon="0.09116">
        <ele>317</ele>
        <time>2020-05-07T12:20:37Z</time>
      </trkpt>
      <trkpt lat="43.22498" lon="0.0911">
        <ele>318</ele>
        <time>2020-05-07T12:20:52Z</time>
      </trkpt>
      <trkpt lat="43.22507" lon="0.09103">
        <ele>318</ele>
        <time>2020-05-07T12:21:05Z</time>
      </trkpt>
      <trkpt lat="43.22525" lon="0.09093">
        <ele>318</ele>
        <time>2020-05-07T12:21:26Z</time>
      </trkpt>
      <trkpt lat="43.22542" lon="0.09088">
        <ele>317</ele>
        <time>2020-05-07T12:21:39Z</time>
      </trkpt>
      <trkpt lat="43.22547" lon="0.09081">
        <ele>317</ele>
        <time>2020-05-07T12:21:46Z</time>
      </trkpt>
      <trkpt lat="43.22601" lon="0.09065">
        <ele>317</ele>
        <time>2020-05-07T12:22:17Z</time>
      </trkpt>
      <trkpt lat="43.22628" lon="0.0905">
        <ele>316</ele>
        <time>2020-05-07T12:22:50Z</time>
      </trkpt>
      <trkpt lat="43.22652" lon="0.09036">
        <ele>316</ele>
        <time>2020-05-07T12:23:15Z</time>
      </trkpt>
      <trkpt lat="43.22715" lon="0.09019">
        <ele>316</ele>
        <time>2020-05-07T12:23:51Z</time>
      </trkpt>
      <trkpt lat="43.22787" lon="0.08998">
        <ele>314</ele>
        <time>2020-05-07T12:24:30Z</time>
      </trkpt>
      <trkpt lat="43.22801" lon="0.08994">
        <ele>314</ele>
        <time>2020-05-07T12:24:42Z</time>
      </trkpt>
      <trkpt lat="43.22835" lon="0.08977">
        <ele>313</ele>
        <time>2020-05-07T12:25:16Z</time>
      </trkpt>
      <trkpt lat="43.22852" lon="0.08972">
        <ele>313</ele>
        <time>2020-05-07T12:25:31Z</time>
      </trkpt>
      <trkpt lat="43.22864" lon="0.08971">
        <ele>313</ele>
        <time>2020-05-07T12:25:42Z</time>
      </trkpt>
      <trkpt lat="43.22872" lon="0.08967">
        <ele>313</ele>
        <time>2020-05-07T12:25:50Z</time>
      </trkpt>
      <trkpt lat="43.22876" lon="0.0896">
        <ele>313</ele>
        <time>2020-05-07T12:25:59Z</time>
      </trkpt>
      <trkpt lat="43.22887" lon="0.0896">
        <ele>313</ele>
        <time>2020-05-07T12:26:11Z</time>
      </trkpt>
      <trkpt lat="43.22928" lon="0.08934">
        <ele>313</ele>
        <time>2020-05-07T12:26:45Z</time>
      </trkpt>
      <trkpt lat="43.22934" lon="0.08926">
        <ele>313</ele>
        <time>2020-05-07T12:26:53Z</time>
      </trkpt>
      <trkpt lat="43.22947" lon="0.08913">
        <ele>313</ele>
        <time>2020-05-07T12:27:03Z</time>
      </trkpt>
      <trkpt lat="43.22953" lon="0.0891">
        <ele>313</ele>
        <time>2020-05-07T12:27:11Z</time>
      </trkpt>
      <trkpt lat="43.22967" lon="0.08897">
        <ele>313</ele>
        <time>2020-05-07T12:27:26Z</time>
      </trkpt>
      <trkpt lat="43.22981" lon="0.08892">
        <ele>313</ele>
        <time>2020-05-07T12:27:39Z</time>
      </trkpt>
      <trkpt lat="43.22996" lon="0.08883">
        <ele>313</ele>
        <time>2020-05-07T12:27:49Z</time>
      </trkpt>
      <trkpt lat="43.23001" lon="0.08878">
        <ele>313</ele>
        <time>2020-05-07T12:27:56Z</time>
      </trkpt>
      <trkpt lat="43.2301" lon="0.08867">
        <ele>313</ele>
        <time>2020-05-07T12:28:08Z</time>
      </trkpt>
      <trkpt lat="43.23029" lon="0.08866">
        <ele>313</ele>
        <time>2020-05-07T12:28:33Z</time>
      </trkpt>
      <trkpt lat="43.23049" lon="0.08845">
        <ele>313</ele>
        <time>2020-05-07T12:28:53Z</time>
      </trkpt>
      <trkpt lat="43.23095" lon="0.08833">
        <ele>313</ele>
        <time>2020-05-07T12:29:25Z</time>
      </trkpt>
      <trkpt lat="43.23106" lon="0.08818">
        <ele>312</ele>
        <time>2020-05-07T12:29:32Z</time>
      </trkpt>
      <trkpt lat="43.23136" lon="0.08771">
        <ele>313</ele>
        <time>2020-05-07T12:30:02Z</time>
      </trkpt>
      <trkpt lat="43.23162" lon="0.08755">
        <ele>313</ele>
        <time>2020-05-07T12:30:34Z</time>
      </trkpt>
      <trkpt lat="43.23174" lon="0.08745">
        <ele>313</ele>
        <time>2020-05-07T12:30:48Z</time>
      </trkpt>
      <trkpt lat="43.23176" lon="0.08737">
        <ele>314</ele>
        <time>2020-05-07T12:30:53Z</time>
      </trkpt>
      <trkpt lat="43.23188" lon="0.08739">
        <ele>314</ele>
        <time>2020-05-07T12:31:06Z</time>
      </trkpt>
      <trkpt lat="43.23203" lon="0.08741">
        <ele>314</ele>
        <time>2020-05-07T12:31:21Z</time>
      </trkpt>
      <trkpt lat="43.23211" lon="0.08723">
        <ele>315</ele>
        <time>2020-05-07T12:31:34Z</time>
      </trkpt>
      <trkpt lat="43.2321" lon="0.08718">
        <ele>315</ele>
        <time>2020-05-07T12:31:38Z</time>
      </trkpt>
      <trkpt lat="43.23216" lon="0.08689">
        <ele>314</ele>
        <time>2020-05-07T12:32:06Z</time>
      </trkpt>
      <trkpt lat="43.23216" lon="0.08678">
        <ele>314</ele>
        <time>2020-05-07T12:32:13Z</time>
      </trkpt>
      <trkpt lat="43.23203" lon="0.08657">
        <ele>313</ele>
        <time>2020-05-07T12:32:38Z</time>
      </trkpt>
      <trkpt lat="43.23196" lon="0.08634">
        <ele>313</ele>
        <time>2020-05-07T12:33:11Z</time>
      </trkpt>
      <trkpt lat="43.23195" lon="0.08627">
        <ele>313</ele>
        <time>2020-05-07T12:33:15Z</time>
      </trkpt>
      <trkpt lat="43.23195" lon="0.08597">
        <ele>314</ele>
        <time>2020-05-07T12:33:30Z</time>
      </trkpt>
      <trkpt lat="43.23193" lon="0.08586">
        <ele>314</ele>
        <time>2020-05-07T12:33:37Z</time>
      </trkpt>
      <trkpt lat="43.2319" lon="0.08578">
        <ele>313</ele>
        <time>2020-05-07T12:33:43Z</time>
      </trkpt>
      <trkpt lat="43.23187" lon="0.08573">
        <ele>313</ele>
        <time>2020-05-07T12:33:47Z</time>
      </trkpt>
      <trkpt lat="43.23183" lon="0.08557">
        <ele>313</ele>
        <time>2020-05-07T12:33:55Z</time>
      </trkpt>
      <trkpt lat="43.23184" lon="0.08548">
        <ele>313</ele>
        <time>2020-05-07T12:34:00Z</time>
      </trkpt>
      <trkpt lat="43.23181" lon="0.08538">
        <ele>314</ele>
        <time>2020-05-07T12:34:08Z</time>
      </trkpt>
      <trkpt lat="43.23173" lon="0.08514">
        <ele>314</ele>
        <time>2020-05-07T12:34:23Z</time>
      </trkpt>
      <trkpt lat="43.23173" lon="0.08506">
        <ele>314</ele>
        <time>2020-05-07T12:34:27Z</time>
      </trkpt>
      <trkpt lat="43.23169" lon="0.08489">
        <ele>314</ele>
        <time>2020-05-07T12:34:37Z</time>
      </trkpt>
      <trkpt lat="43.23169" lon="0.08482">
        <ele>314</ele>
        <time>2020-05-07T12:34:41Z</time>
      </trkpt>
      <trkpt lat="43.2316" lon="0.08416">
        <ele>313</ele>
        <time>2020-05-07T12:35:18Z</time>
      </trkpt>
      <trkpt lat="43.23162" lon="0.08396">
        <ele>313</ele>
        <time>2020-05-07T12:35:29Z</time>
      </trkpt>
      <trkpt lat="43.23169" lon="0.08375">
        <ele>314</ele>
        <time>2020-05-07T12:35:51Z</time>
      </trkpt>
      <trkpt lat="43.2317" lon="0.08333">
        <ele>314</ele>
        <time>2020-05-07T12:36:12Z</time>
      </trkpt>
      <trkpt lat="43.23184" lon="0.08284">
        <ele>314</ele>
        <time>2020-05-07T12:36:48Z</time>
      </trkpt>
      <trkpt lat="43.23188" lon="0.08279">
        <ele>314</ele>
        <time>2020-05-07T12:36:57Z</time>
      </trkpt>
      <trkpt lat="43.23199" lon="0.08256">
        <ele>314</ele>
        <time>2020-05-07T12:37:12Z</time>
      </trkpt>
      <trkpt lat="43.23204" lon="0.08238">
        <ele>314</ele>
        <time>2020-05-07T12:37:20Z</time>
      </trkpt>
      <trkpt lat="43.23228" lon="0.08191">
        <ele>313</ele>
        <time>2020-05-07T12:37:55Z</time>
      </trkpt>
      <trkpt lat="43.2323" lon="0.08184">
        <ele>313</ele>
        <time>2020-05-07T12:38:00Z</time>
      </trkpt>
      <trkpt lat="43.23236" lon="0.08186">
        <ele>313</ele>
        <time>2020-05-07T12:38:14Z</time>
      </trkpt>
      <trkpt lat="43.23262" lon="0.08201">
        <ele>313</ele>
        <time>2020-05-07T12:38:38Z</time>
      </trkpt>
      <trkpt lat="43.23279" lon="0.08202">
        <ele>313</ele>
        <time>2020-05-07T12:38:49Z</time>
      </trkpt>
      <trkpt lat="43.23284" lon="0.08206">
        <ele>313</ele>
        <time>2020-05-07T12:38:53Z</time>
      </trkpt>
      <trkpt lat="43.23291" lon="0.08205">
        <ele>313</ele>
        <time>2020-05-07T12:38:57Z</time>
      </trkpt>
      <trkpt lat="43.23321" lon="0.08212">
        <ele>313</ele>
        <time>2020-05-07T12:39:19Z</time>
      </trkpt>
      <trkpt lat="43.23327" lon="0.08209">
        <ele>312</ele>
        <time>2020-05-07T12:39:23Z</time>
      </trkpt>
      <trkpt lat="43.2334" lon="0.0821">
        <ele>312</ele>
        <time>2020-05-07T12:39:35Z</time>
      </trkpt>
      <trkpt lat="43.23351" lon="0.08208">
        <ele>312</ele>
        <time>2020-05-07T12:39:46Z</time>
      </trkpt>
      <trkpt lat="43.2336" lon="0.08203">
        <ele>312</ele>
        <time>2020-05-07T12:39:57Z</time>
      </trkpt>
      <trkpt lat="43.23381" lon="0.08203">
        <ele>312</ele>
        <time>2020-05-07T12:40:16Z</time>
      </trkpt>
      <trkpt lat="43.23385" lon="0.08196">
        <ele>312</ele>
        <time>2020-05-07T12:40:20Z</time>
      </trkpt>
      <trkpt lat="43.23392" lon="0.08167">
        <ele>312</ele>
        <time>2020-05-07T12:40:41Z</time>
      </trkpt>
    </trkseg>
  </trk>
</gpx>